sensor_id;sensor_type;location;lat;lon;timestamp;P1;durP1;ratioP1;P2;durP2;ratioP2
7426;SDS011;3755;59.316;18.092;2022-11-18T00:01:38;4.30;;;2.60;;
7426;SDS011;3755;59.316;18.092;2022-11-18T00:04:06;4.37;;;2.30;;
7426;SDS011;3755;59.316;18.092;2022-11-18T00:06:35;3.70;;;2.27;;
7426;SDS011;3755;59.316;18.092;2022-11-18T00:09:03;4.77;;;2.90;;
7426;SDS011;3755;59.316;18.092;2022-11-18T00:11:32;3.77;;;2.00;;
7426;SDS011;3755;59.316;18.092;2022-11-18T00:14:18;5.93;;;2.40;;
7426;SDS011;3755;59.316;18.092;2022-11-18T00:16:49;3.77;;;2.43;;
7426;SDS011;3755;59.316;18.092;2022-11-18T00:19:19;4.40;;;2.40;;
7426;SDS011;3755;59.316;18.092;2022-11-18T00:21:48;4.00;;;1.97;;
7426;SDS011;3755;59.316;18.092;2022-11-18T00:24:15;5.73;;;1.60;;
7426;SDS011;3755;59.316;18.092;2022-11-18T00:26:42;4.80;;;1.93;;
7426;SDS011;3755;59.316;18.092;2022-11-18T00:29:09;2.23;;;1.10;;
7426;SDS011;3755;59.316;18.092;2022-11-18T00:31:37;2.70;;;1.10;;
7426;SDS011;3755;59.316;18.092;2022-11-18T00:34:09;3.53;;;0.80;;
7426;SDS011;3755;59.316;18.092;2022-11-18T00:36:37;1.40;;;0.80;;
7426;SDS011;3755;59.316;18.092;2022-11-18T00:39:04;1.80;;;1.03;;
7426;SDS011;3755;59.316;18.092;2022-11-18T00:41:31;1.77;;;0.90;;
7426;SDS011;3755;59.316;18.092;2022-11-18T00:44:12;4.37;;;0.90;;
7426;SDS011;3755;59.316;18.092;2022-11-18T00:46:40;4.57;;;1.00;;
7426;SDS011;3755;59.316;18.092;2022-11-18T00:49:09;2.03;;;0.80;;
7426;SDS011;3755;59.316;18.092;2022-11-18T00:51:36;1.23;;;0.73;;
7426;SDS011;3755;59.316;18.092;2022-11-18T00:54:07;1.33;;;0.70;;
7426;SDS011;3755;59.316;18.092;2022-11-18T00:56:36;1.73;;;1.07;;
7426;SDS011;3755;59.316;18.092;2022-11-18T00:59:04;1.03;;;0.70;;
7426;SDS011;3755;59.316;18.092;2022-11-18T01:01:34;1.47;;;0.87;;
7426;SDS011;3755;59.316;18.092;2022-11-18T01:04:02;1.53;;;0.93;;
7426;SDS011;3755;59.316;18.092;2022-11-18T01:06:31;1.57;;;0.70;;
7426;SDS011;3755;59.316;18.092;2022-11-18T01:08:58;1.23;;;1.03;;
7426;SDS011;3755;59.316;18.092;2022-11-18T01:11:25;2.63;;;0.90;;
7426;SDS011;3755;59.316;18.092;2022-11-18T01:14:10;4.30;;;0.90;;
7426;SDS011;3755;59.316;18.092;2022-11-18T01:16:37;2.40;;;0.83;;
7426;SDS011;3755;59.316;18.092;2022-11-18T01:19:05;1.80;;;0.60;;
7426;SDS011;3755;59.316;18.092;2022-11-18T01:21:34;3.00;;;0.70;;
7426;SDS011;3755;59.316;18.092;2022-11-18T01:24:05;1.07;;;0.70;;
7426;SDS011;3755;59.316;18.092;2022-11-18T01:26:33;2.43;;;0.97;;
7426;SDS011;3755;59.316;18.092;2022-11-18T01:29:02;3.17;;;1.20;;
7426;SDS011;3755;59.316;18.092;2022-11-18T01:31:34;3.07;;;1.00;;
7426;SDS011;3755;59.316;18.092;2022-11-18T01:34:03;4.83;;;2.27;;
7426;SDS011;3755;59.316;18.092;2022-11-18T01:36:30;1.43;;;0.93;;
7426;SDS011;3755;59.316;18.092;2022-11-18T01:39:02;2.73;;;1.00;;
7426;SDS011;3755;59.316;18.092;2022-11-18T01:41:30;1.20;;;0.83;;
7426;SDS011;3755;59.316;18.092;2022-11-18T01:43:59;1.67;;;0.97;;
7426;SDS011;3755;59.316;18.092;2022-11-18T01:46:29;1.73;;;1.10;;
7426;SDS011;3755;59.316;18.092;2022-11-18T01:49:02;4.10;;;1.30;;
7426;SDS011;3755;59.316;18.092;2022-11-18T01:51:33;2.60;;;1.83;;
7426;SDS011;3755;59.316;18.092;2022-11-18T01:54:19;1.90;;;1.00;;
7426;SDS011;3755;59.316;18.092;2022-11-18T01:56:51;2.53;;;1.00;;
7426;SDS011;3755;59.316;18.092;2022-11-18T01:59:25;2.13;;;0.90;;
7426;SDS011;3755;59.316;18.092;2022-11-18T02:01:54;2.97;;;0.93;;
7426;SDS011;3755;59.316;18.092;2022-11-18T02:04:22;1.20;;;1.10;;
7426;SDS011;3755;59.316;18.092;2022-11-18T02:06:52;2.07;;;1.07;;
7426;SDS011;3755;59.316;18.092;2022-11-18T02:09:22;0.80;;;0.60;;
7426;SDS011;3755;59.316;18.092;2022-11-18T02:11:50;5.87;;;0.93;;
7426;SDS011;3755;59.316;18.092;2022-11-18T02:14:19;1.43;;;0.60;;
7426;SDS011;3755;59.316;18.092;2022-11-18T02:16:57;3.20;;;1.00;;
7426;SDS011;3755;59.316;18.092;2022-11-18T02:19:37;0.73;;;0.60;;
7426;SDS011;3755;59.316;18.092;2022-11-18T02:22:28;1.57;;;0.60;;
7426;SDS011;3755;59.316;18.092;2022-11-18T02:25:10;3.63;;;0.90;;
7426;SDS011;3755;59.316;18.092;2022-11-18T02:27:58;4.37;;;1.30;;
7426;SDS011;3755;59.316;18.092;2022-11-18T02:30:48;1.73;;;1.10;;
7426;SDS011;3755;59.316;18.092;2022-11-18T02:33:21;3.30;;;1.23;;
7426;SDS011;3755;59.316;18.092;2022-11-18T02:35:55;1.70;;;0.70;;
7426;SDS011;3755;59.316;18.092;2022-11-18T02:38:29;3.77;;;1.37;;
7426;SDS011;3755;59.316;18.092;2022-11-18T02:41:01;2.37;;;0.80;;
7426;SDS011;3755;59.316;18.092;2022-11-18T02:43:33;1.67;;;0.70;;
7426;SDS011;3755;59.316;18.092;2022-11-18T02:46:08;1.00;;;0.97;;
7426;SDS011;3755;59.316;18.092;2022-11-18T02:48:43;3.23;;;1.00;;
7426;SDS011;3755;59.316;18.092;2022-11-18T02:51:17;2.17;;;1.20;;
7426;SDS011;3755;59.316;18.092;2022-11-18T02:53:49;1.83;;;1.00;;
7426;SDS011;3755;59.316;18.092;2022-11-18T02:56:18;4.17;;;1.17;;
7426;SDS011;3755;59.316;18.092;2022-11-18T02:58:47;2.90;;;1.20;;
7426;SDS011;3755;59.316;18.092;2022-11-18T03:01:19;2.63;;;1.53;;
7426;SDS011;3755;59.316;18.092;2022-11-18T03:03:51;2.50;;;1.40;;
7426;SDS011;3755;59.316;18.092;2022-11-18T03:06:21;2.20;;;1.10;;
7426;SDS011;3755;59.316;18.092;2022-11-18T03:08:55;4.33;;;1.00;;
7426;SDS011;3755;59.316;18.092;2022-11-18T03:11:31;2.07;;;1.20;;
7426;SDS011;3755;59.316;18.092;2022-11-18T03:14:12;1.50;;;1.10;;
7426;SDS011;3755;59.316;18.092;2022-11-18T03:16:55;4.40;;;1.23;;
7426;SDS011;3755;59.316;18.092;2022-11-18T03:19:28;5.63;;;1.40;;
7426;SDS011;3755;59.316;18.092;2022-11-18T03:22:09;3.43;;;1.10;;
7426;SDS011;3755;59.316;18.092;2022-11-18T03:24:39;4.13;;;1.50;;
7426;SDS011;3755;59.316;18.092;2022-11-18T03:27:11;4.30;;;1.57;;
7426;SDS011;3755;59.316;18.092;2022-11-18T03:29:46;2.20;;;1.27;;
7426;SDS011;3755;59.316;18.092;2022-11-18T03:32:22;4.40;;;1.10;;
7426;SDS011;3755;59.316;18.092;2022-11-18T03:34:54;4.10;;;1.30;;
7426;SDS011;3755;59.316;18.092;2022-11-18T03:37:32;4.87;;;1.10;;
7426;SDS011;3755;59.316;18.092;2022-11-18T03:40:02;4.63;;;1.40;;
7426;SDS011;3755;59.316;18.092;2022-11-18T03:42:37;5.33;;;1.43;;
7426;SDS011;3755;59.316;18.092;2022-11-18T03:45:13;4.17;;;1.67;;
7426;SDS011;3755;59.316;18.092;2022-11-18T03:47:46;5.00;;;1.47;;
7426;SDS011;3755;59.316;18.092;2022-11-18T03:50:20;2.33;;;1.30;;
7426;SDS011;3755;59.316;18.092;2022-11-18T03:52:51;2.00;;;1.17;;
7426;SDS011;3755;59.316;18.092;2022-11-18T03:55:21;3.87;;;1.30;;
7426;SDS011;3755;59.316;18.092;2022-11-18T03:57:54;1.53;;;1.23;;
7426;SDS011;3755;59.316;18.092;2022-11-18T04:00:26;3.60;;;1.47;;
7426;SDS011;3755;59.316;18.092;2022-11-18T04:03:00;2.80;;;1.47;;
7426;SDS011;3755;59.316;18.092;2022-11-18T04:05:28;4.60;;;1.37;;
7426;SDS011;3755;59.316;18.092;2022-11-18T04:07:59;5.97;;;1.57;;
7426;SDS011;3755;59.316;18.092;2022-11-18T04:10:28;2.50;;;1.30;;
7426;SDS011;3755;59.316;18.092;2022-11-18T04:13:02;5.17;;;1.80;;
7426;SDS011;3755;59.316;18.092;2022-11-18T04:15:32;3.17;;;1.40;;
7426;SDS011;3755;59.316;18.092;2022-11-18T04:18:03;2.57;;;1.40;;
7426;SDS011;3755;59.316;18.092;2022-11-18T04:20:32;2.10;;;1.20;;
7426;SDS011;3755;59.316;18.092;2022-11-18T04:22:59;1.57;;;1.20;;
7426;SDS011;3755;59.316;18.092;2022-11-18T04:25:27;3.70;;;1.57;;
7426;SDS011;3755;59.316;18.092;2022-11-18T04:27:54;3.67;;;1.40;;
7426;SDS011;3755;59.316;18.092;2022-11-18T04:30:22;2.37;;;1.20;;
7426;SDS011;3755;59.316;18.092;2022-11-18T04:32:49;4.40;;;1.40;;
7426;SDS011;3755;59.316;18.092;2022-11-18T04:35:18;4.87;;;1.30;;
7426;SDS011;3755;59.316;18.092;2022-11-18T04:37:45;2.93;;;1.30;;
7426;SDS011;3755;59.316;18.092;2022-11-18T04:40:13;3.40;;;1.40;;
7426;SDS011;3755;59.316;18.092;2022-11-18T04:42:42;3.07;;;1.17;;
7426;SDS011;3755;59.316;18.092;2022-11-18T04:45:10;2.50;;;1.20;;
7426;SDS011;3755;59.316;18.092;2022-11-18T04:47:38;4.73;;;1.40;;
7426;SDS011;3755;59.316;18.092;2022-11-18T04:50:07;4.53;;;1.67;;
7426;SDS011;3755;59.316;18.092;2022-11-18T04:52:36;2.93;;;1.20;;
7426;SDS011;3755;59.316;18.092;2022-11-18T04:55:04;6.17;;;1.40;;
7426;SDS011;3755;59.316;18.092;2022-11-18T04:57:33;1.60;;;1.10;;
7426;SDS011;3755;59.316;18.092;2022-11-18T05:00:00;1.47;;;1.10;;
7426;SDS011;3755;59.316;18.092;2022-11-18T05:02:28;6.50;;;1.47;;
7426;SDS011;3755;59.316;18.092;2022-11-18T05:04:56;4.37;;;1.40;;
7426;SDS011;3755;59.316;18.092;2022-11-18T05:07:25;3.20;;;1.37;;
7426;SDS011;3755;59.316;18.092;2022-11-18T05:09:55;3.77;;;1.43;;
7426;SDS011;3755;59.316;18.092;2022-11-18T05:12:23;2.57;;;1.00;;
7426;SDS011;3755;59.316;18.092;2022-11-18T05:15:07;1.33;;;0.90;;
7426;SDS011;3755;59.316;18.092;2022-11-18T05:17:35;2.37;;;1.40;;
7426;SDS011;3755;59.316;18.092;2022-11-18T05:20:17;4.27;;;1.20;;
7426;SDS011;3755;59.316;18.092;2022-11-18T05:22:46;4.37;;;1.40;;
7426;SDS011;3755;59.316;18.092;2022-11-18T05:25:15;1.33;;;0.90;;
7426;SDS011;3755;59.316;18.092;2022-11-18T05:27:46;2.73;;;0.93;;
7426;SDS011;3755;59.316;18.092;2022-11-18T05:30:14;4.40;;;1.87;;
7426;SDS011;3755;59.316;18.092;2022-11-18T05:32:42;2.60;;;1.03;;
7426;SDS011;3755;59.316;18.092;2022-11-18T05:35:10;2.30;;;1.10;;
7426;SDS011;3755;59.316;18.092;2022-11-18T05:37:37;2.97;;;1.60;;
7426;SDS011;3755;59.316;18.092;2022-11-18T05:40:07;3.80;;;1.60;;
7426;SDS011;3755;59.316;18.092;2022-11-18T05:42:37;3.23;;;1.20;;
7426;SDS011;3755;59.316;18.092;2022-11-18T05:45:22;3.40;;;1.50;;
7426;SDS011;3755;59.316;18.092;2022-11-18T05:47:49;2.13;;;1.00;;
7426;SDS011;3755;59.316;18.092;2022-11-18T05:50:28;3.07;;;1.07;;
7426;SDS011;3755;59.316;18.092;2022-11-18T05:52:57;3.93;;;1.60;;
7426;SDS011;3755;59.316;18.092;2022-11-18T05:55:25;2.70;;;1.30;;
7426;SDS011;3755;59.316;18.092;2022-11-18T05:57:56;3.80;;;1.10;;
7426;SDS011;3755;59.316;18.092;2022-11-18T06:00:25;5.70;;;1.70;;
7426;SDS011;3755;59.316;18.092;2022-11-18T06:02:53;5.10;;;1.07;;
7426;SDS011;3755;59.316;18.092;2022-11-18T06:05:26;1.43;;;1.33;;
7426;SDS011;3755;59.316;18.092;2022-11-18T06:07:53;1.67;;;1.57;;
7426;SDS011;3755;59.316;18.092;2022-11-18T06:10:24;3.40;;;1.97;;
7426;SDS011;3755;59.316;18.092;2022-11-18T06:12:57;1.63;;;1.53;;
7426;SDS011;3755;59.316;18.092;2022-11-18T06:15:30;3.37;;;1.80;;
7426;SDS011;3755;59.316;18.092;2022-11-18T06:18:02;2.73;;;1.50;;
7426;SDS011;3755;59.316;18.092;2022-11-18T06:20:33;1.93;;;1.07;;
7426;SDS011;3755;59.316;18.092;2022-11-18T06:23:05;2.57;;;1.70;;
7426;SDS011;3755;59.316;18.092;2022-11-18T06:25:36;4.57;;;1.77;;
7426;SDS011;3755;59.316;18.092;2022-11-18T06:28:07;1.63;;;1.27;;
7426;SDS011;3755;59.316;18.092;2022-11-18T06:30:37;1.23;;;0.97;;
7426;SDS011;3755;59.316;18.092;2022-11-18T06:33:05;1.60;;;1.10;;
7426;SDS011;3755;59.316;18.092;2022-11-18T06:35:46;6.00;;;3.27;;
7426;SDS011;3755;59.316;18.092;2022-11-18T06:38:15;2.27;;;1.40;;
7426;SDS011;3755;59.316;18.092;2022-11-18T06:40:42;3.47;;;1.13;;
7426;SDS011;3755;59.316;18.092;2022-11-18T06:43:39;1.17;;;0.87;;
7426;SDS011;3755;59.316;18.092;2022-11-18T06:46:21;3.30;;;1.10;;
7426;SDS011;3755;59.316;18.092;2022-11-18T06:49:07;2.47;;;1.10;;
7426;SDS011;3755;59.316;18.092;2022-11-18T06:51:38;2.43;;;1.30;;
7426;SDS011;3755;59.316;18.092;2022-11-18T06:54:07;2.17;;;1.00;;
7426;SDS011;3755;59.316;18.092;2022-11-18T06:56:47;7.33;;;1.33;;
7426;SDS011;3755;59.316;18.092;2022-11-18T06:59:20;2.83;;;1.30;;
7426;SDS011;3755;59.316;18.092;2022-11-18T07:01:52;4.27;;;1.03;;
7426;SDS011;3755;59.316;18.092;2022-11-18T07:04:50;1.50;;;1.13;;
7426;SDS011;3755;59.316;18.092;2022-11-18T07:07:22;3.03;;;1.40;;
7426;SDS011;3755;59.316;18.092;2022-11-18T07:10:23;0.93;;;0.93;;
7426;SDS011;3755;59.316;18.092;2022-11-18T07:12:52;5.33;;;1.97;;
7426;SDS011;3755;59.316;18.092;2022-11-18T07:18:50;2.73;;;1.77;;
7426;SDS011;3755;59.316;18.092;2022-11-18T07:21:30;2.27;;;1.13;;
7426;SDS011;3755;59.316;18.092;2022-11-18T07:24:12;1.57;;;1.03;;
7426;SDS011;3755;59.316;18.092;2022-11-18T07:26:42;1.10;;;0.93;;
7426;SDS011;3755;59.316;18.092;2022-11-18T07:29:23;3.73;;;1.20;;
7426;SDS011;3755;59.316;18.092;2022-11-18T07:32:11;4.70;;;1.50;;
7426;SDS011;3755;59.316;18.092;2022-11-18T07:34:40;1.53;;;1.07;;
7426;SDS011;3755;59.316;18.092;2022-11-18T07:37:22;3.10;;;1.30;;
7426;SDS011;3755;59.316;18.092;2022-11-18T07:40:08;4.07;;;1.30;;
7426;SDS011;3755;59.316;18.092;2022-11-18T07:42:54;1.97;;;1.10;;
7426;SDS011;3755;59.316;18.092;2022-11-18T07:45:27;3.13;;;1.30;;
7426;SDS011;3755;59.316;18.092;2022-11-18T07:47:55;3.23;;;1.40;;
7426;SDS011;3755;59.316;18.092;2022-11-18T07:51:08;1.97;;;1.20;;
7426;SDS011;3755;59.316;18.092;2022-11-18T07:53:45;1.63;;;1.27;;
7426;SDS011;3755;59.316;18.092;2022-11-18T07:56:16;1.43;;;0.90;;
7426;SDS011;3755;59.316;18.092;2022-11-18T07:58:52;1.53;;;1.00;;
7426;SDS011;3755;59.316;18.092;2022-11-18T08:01:20;1.00;;;0.90;;
7426;SDS011;3755;59.316;18.092;2022-11-18T08:04:03;2.93;;;0.80;;
7426;SDS011;3755;59.316;18.092;2022-11-18T08:06:36;2.43;;;1.10;;
7426;SDS011;3755;59.316;18.092;2022-11-18T08:09:04;2.70;;;1.17;;
7426;SDS011;3755;59.316;18.092;2022-11-18T08:11:49;1.20;;;1.10;;
7426;SDS011;3755;59.316;18.092;2022-11-18T08:14:19;1.60;;;1.17;;
7426;SDS011;3755;59.316;18.092;2022-11-18T08:16:48;1.60;;;0.97;;
7426;SDS011;3755;59.316;18.092;2022-11-18T08:19:17;1.93;;;1.10;;
7426;SDS011;3755;59.316;18.092;2022-11-18T08:21:59;1.37;;;0.90;;
7426;SDS011;3755;59.316;18.092;2022-11-18T08:24:40;3.07;;;1.00;;
7426;SDS011;3755;59.316;18.092;2022-11-18T08:27:09;2.00;;;1.10;;
7426;SDS011;3755;59.316;18.092;2022-11-18T08:29:50;4.20;;;1.40;;
7426;SDS011;3755;59.316;18.092;2022-11-18T08:32:28;1.77;;;0.80;;
7426;SDS011;3755;59.316;18.092;2022-11-18T08:35:11;1.50;;;1.00;;
7426;SDS011;3755;59.316;18.092;2022-11-18T08:43:50;2.33;;;1.20;;
7426;SDS011;3755;59.316;18.092;2022-11-18T08:46:34;2.73;;;1.13;;
7426;SDS011;3755;59.316;18.092;2022-11-18T08:49:21;1.63;;;0.90;;
7426;SDS011;3755;59.316;18.092;2022-11-18T08:52:03;0.70;;;0.70;;
7426;SDS011;3755;59.316;18.092;2022-11-18T08:54:51;1.90;;;1.00;;
7426;SDS011;3755;59.316;18.092;2022-11-18T08:57:40;1.63;;;1.13;;
7426;SDS011;3755;59.316;18.092;2022-11-18T09:00:39;3.30;;;0.90;;
7426;SDS011;3755;59.316;18.092;2022-11-18T09:03:25;0.70;;;0.70;;
7426;SDS011;3755;59.316;18.092;2022-11-18T09:06:03;1.90;;;1.40;;
7426;SDS011;3755;59.316;18.092;2022-11-18T09:08:46;6.10;;;1.73;;
7426;SDS011;3755;59.316;18.092;2022-11-18T09:11:22;2.53;;;1.30;;
7426;SDS011;3755;59.316;18.092;2022-11-18T09:14:22;3.37;;;1.17;;
7426;SDS011;3755;59.316;18.092;2022-11-18T09:17:03;1.87;;;1.03;;
7426;SDS011;3755;59.316;18.092;2022-11-18T09:19:32;2.53;;;1.20;;
7426;SDS011;3755;59.316;18.092;2022-11-18T09:22:29;4.13;;;1.43;;
7426;SDS011;3755;59.316;18.092;2022-11-18T09:25:07;2.33;;;1.20;;
7426;SDS011;3755;59.316;18.092;2022-11-18T09:27:49;1.83;;;1.27;;
7426;SDS011;3755;59.316;18.092;2022-11-18T09:30:41;1.13;;;0.90;;
7426;SDS011;3755;59.316;18.092;2022-11-18T09:33:26;2.10;;;1.27;;
7426;SDS011;3755;59.316;18.092;2022-11-18T09:36:10;1.30;;;1.17;;
7426;SDS011;3755;59.316;18.092;2022-11-18T09:38:52;1.87;;;1.00;;
7426;SDS011;3755;59.316;18.092;2022-11-18T09:41:43;3.30;;;1.17;;
7426;SDS011;3755;59.316;18.092;2022-11-18T09:44:22;5.27;;;1.77;;
7426;SDS011;3755;59.316;18.092;2022-11-18T09:47:25;1.40;;;1.20;;
7426;SDS011;3755;59.316;18.092;2022-11-18T09:50:13;2.53;;;1.20;;
7426;SDS011;3755;59.316;18.092;2022-11-18T09:55:19;3.40;;;1.13;;
7426;SDS011;3755;59.316;18.092;2022-11-18T09:58:31;2.63;;;1.40;;
7426;SDS011;3755;59.316;18.092;2022-11-18T10:01:16;1.23;;;0.77;;
7426;SDS011;3755;59.316;18.092;2022-11-18T10:06:51;1.60;;;1.20;;
7426;SDS011;3755;59.316;18.092;2022-11-18T10:09:34;3.40;;;1.33;;
7426;SDS011;3755;59.316;18.092;2022-11-18T10:12:12;2.17;;;1.27;;
7426;SDS011;3755;59.316;18.092;2022-11-18T10:15:07;3.10;;;1.40;;
7426;SDS011;3755;59.316;18.092;2022-11-18T10:18:05;1.77;;;1.10;;
7426;SDS011;3755;59.316;18.092;2022-11-18T10:30:29;2.53;;;1.30;;
7426;SDS011;3755;59.316;18.092;2022-11-18T10:33:18;3.93;;;1.57;;
7426;SDS011;3755;59.316;18.092;2022-11-18T10:36:23;3.20;;;1.27;;
7426;SDS011;3755;59.316;18.092;2022-11-18T10:42:40;1.57;;;0.90;;
7426;SDS011;3755;59.316;18.092;2022-11-18T10:48:37;1.63;;;0.90;;
7426;SDS011;3755;59.316;18.092;2022-11-18T10:51:21;1.30;;;1.07;;
7426;SDS011;3755;59.316;18.092;2022-11-18T10:54:05;3.53;;;1.20;;
7426;SDS011;3755;59.316;18.092;2022-11-18T10:56:48;2.20;;;0.83;;
7426;SDS011;3755;59.316;18.092;2022-11-18T10:59:55;2.53;;;1.07;;
7426;SDS011;3755;59.316;18.092;2022-11-18T11:02:39;1.47;;;0.90;;
7426;SDS011;3755;59.316;18.092;2022-11-18T11:24:59;2.70;;;1.60;;
7426;SDS011;3755;59.316;18.092;2022-11-18T11:27:42;4.23;;;1.40;;
7426;SDS011;3755;59.316;18.092;2022-11-18T11:30:28;2.60;;;1.13;;
7426;SDS011;3755;59.316;18.092;2022-11-18T11:33:21;3.17;;;1.50;;
7426;SDS011;3755;59.316;18.092;2022-11-18T11:36:14;5.43;;;1.30;;
7426;SDS011;3755;59.316;18.092;2022-11-18T11:58:26;3.30;;;0.80;;
7426;SDS011;3755;59.316;18.092;2022-11-18T12:01:30;2.63;;;1.20;;
7426;SDS011;3755;59.316;18.092;2022-11-18T12:04:22;2.63;;;1.10;;
7426;SDS011;3755;59.316;18.092;2022-11-18T12:07:10;1.37;;;0.77;;
7426;SDS011;3755;59.316;18.092;2022-11-18T12:10:07;2.50;;;1.30;;
7426;SDS011;3755;59.316;18.092;2022-11-18T12:13:10;3.87;;;0.93;;
7426;SDS011;3755;59.316;18.092;2022-11-18T12:16:27;2.10;;;1.13;;
7426;SDS011;3755;59.316;18.092;2022-11-18T12:19:15;3.03;;;0.97;;
7426;SDS011;3755;59.316;18.092;2022-11-18T12:21:51;1.47;;;0.90;;
7426;SDS011;3755;59.316;18.092;2022-11-18T12:24:35;2.80;;;1.07;;
7426;SDS011;3755;59.316;18.092;2022-11-18T12:27:54;1.03;;;0.90;;
7426;SDS011;3755;59.316;18.092;2022-11-18T12:30:41;1.30;;;1.20;;
7426;SDS011;3755;59.316;18.092;2022-11-18T12:33:25;1.50;;;0.93;;
7426;SDS011;3755;59.316;18.092;2022-11-18T12:36:20;2.07;;;0.90;;
7426;SDS011;3755;59.316;18.092;2022-11-18T12:55:33;1.70;;;1.17;;
7426;SDS011;3755;59.316;18.092;2022-11-18T12:58:33;1.43;;;1.33;;
7426;SDS011;3755;59.316;18.092;2022-11-18T13:01:17;3.93;;;1.77;;
7426;SDS011;3755;59.316;18.092;2022-11-18T13:04:19;2.53;;;1.40;;
7426;SDS011;3755;59.316;18.092;2022-11-18T13:14:34;1.93;;;1.50;;
7426;SDS011;3755;59.316;18.092;2022-11-18T13:17:42;1.53;;;0.97;;
7426;SDS011;3755;59.316;18.092;2022-11-18T13:20:32;2.17;;;1.13;;
7426;SDS011;3755;59.316;18.092;2022-11-18T13:23:25;4.47;;;1.00;;
7426;SDS011;3755;59.316;18.092;2022-11-18T13:53:43;1.77;;;0.90;;
7426;SDS011;3755;59.316;18.092;2022-11-18T13:59:47;1.43;;;0.70;;
7426;SDS011;3755;59.316;18.092;2022-11-18T14:06:01;1.80;;;1.00;;
7426;SDS011;3755;59.316;18.092;2022-11-18T14:12:26;1.77;;;1.00;;
7426;SDS011;3755;59.316;18.092;2022-11-18T14:15:13;3.90;;;0.97;;
7426;SDS011;3755;59.316;18.092;2022-11-18T14:18:17;1.27;;;1.00;;
7426;SDS011;3755;59.316;18.092;2022-11-18T14:21:30;0.60;;;0.60;;
7426;SDS011;3755;59.316;18.092;2022-11-18T14:24:04;1.83;;;1.07;;
7426;SDS011;3755;59.316;18.092;2022-11-18T15:41:12;0.70;;;0.70;;
7426;SDS011;3755;59.316;18.092;2022-11-18T15:46:57;0.83;;;0.83;;
7426;SDS011;3755;59.316;18.092;2022-11-18T15:49:40;1.27;;;0.60;;
7426;SDS011;3755;59.316;18.092;2022-11-18T15:52:22;1.40;;;0.73;;
7426;SDS011;3755;59.316;18.092;2022-11-18T15:55:09;2.80;;;0.73;;
7426;SDS011;3755;59.316;18.092;2022-11-18T15:58:11;1.03;;;0.97;;
7426;SDS011;3755;59.316;18.092;2022-11-18T16:01:01;0.73;;;0.73;;
7426;SDS011;3755;59.316;18.092;2022-11-18T16:03:42;0.97;;;0.77;;
7426;SDS011;3755;59.316;18.092;2022-11-18T16:09:19;0.87;;;0.87;;
7426;SDS011;3755;59.316;18.092;2022-11-18T16:18:47;1.23;;;1.00;;
7426;SDS011;3755;59.316;18.092;2022-11-18T16:21:37;1.23;;;0.90;;
7426;SDS011;3755;59.316;18.092;2022-11-18T16:24:29;5.17;;;1.20;;
7426;SDS011;3755;59.316;18.092;2022-11-18T16:27:12;1.93;;;0.60;;
7426;SDS011;3755;59.316;18.092;2022-11-18T16:29:53;3.60;;;1.10;;
7426;SDS011;3755;59.316;18.092;2022-11-18T16:33:16;1.30;;;1.10;;
7426;SDS011;3755;59.316;18.092;2022-11-18T16:35:50;1.57;;;1.00;;
7426;SDS011;3755;59.316;18.092;2022-11-18T16:38:20;1.20;;;0.70;;
7426;SDS011;3755;59.316;18.092;2022-11-18T16:41:19;1.10;;;1.00;;
7426;SDS011;3755;59.316;18.092;2022-11-18T16:44:16;2.40;;;1.30;;
7426;SDS011;3755;59.316;18.092;2022-11-18T16:46:58;3.13;;;1.17;;
7426;SDS011;3755;59.316;18.092;2022-11-18T16:49:43;2.03;;;1.10;;
7426;SDS011;3755;59.316;18.092;2022-11-18T16:55:40;4.17;;;2.97;;
7426;SDS011;3755;59.316;18.092;2022-11-18T16:58:21;2.43;;;1.90;;
7426;SDS011;3755;59.316;18.092;2022-11-18T17:00:52;1.37;;;1.00;;
7426;SDS011;3755;59.316;18.092;2022-11-18T17:03:22;1.10;;;0.90;;
7426;SDS011;3755;59.316;18.092;2022-11-18T17:06:05;1.67;;;0.80;;
7426;SDS011;3755;59.316;18.092;2022-11-18T17:08:48;0.90;;;0.83;;
7426;SDS011;3755;59.316;18.092;2022-11-18T17:11:33;2.53;;;0.93;;
7426;SDS011;3755;59.316;18.092;2022-11-18T17:14:16;1.33;;;0.90;;
7426;SDS011;3755;59.316;18.092;2022-11-18T17:17:07;1.03;;;0.87;;
7426;SDS011;3755;59.316;18.092;2022-11-18T17:19:48;2.20;;;1.13;;
7426;SDS011;3755;59.316;18.092;2022-11-18T17:22:31;3.53;;;1.10;;
7426;SDS011;3755;59.316;18.092;2022-11-18T17:25:27;10.80;;;5.07;;
7426;SDS011;3755;59.316;18.092;2022-11-18T17:31:38;11.93;;;6.80;;
7426;SDS011;3755;59.316;18.092;2022-11-18T17:34:20;16.10;;;6.67;;
7426;SDS011;3755;59.316;18.092;2022-11-18T17:36:49;10.90;;;4.20;;
7426;SDS011;3755;59.316;18.092;2022-11-18T17:39:21;26.37;;;9.00;;
7426;SDS011;3755;59.316;18.092;2022-11-18T17:42:05;7.40;;;3.97;;
7426;SDS011;3755;59.316;18.092;2022-11-18T17:44:55;16.53;;;5.00;;
7426;SDS011;3755;59.316;18.092;2022-11-18T17:54:04;3.53;;;1.93;;
7426;SDS011;3755;59.316;18.092;2022-11-18T17:56:58;10.83;;;4.13;;
7426;SDS011;3755;59.316;18.092;2022-11-18T17:59:43;13.13;;;5.10;;
7426;SDS011;3755;59.316;18.092;2022-11-18T18:02:27;5.77;;;2.80;;
7426;SDS011;3755;59.316;18.092;2022-11-18T18:04:55;17.50;;;5.43;;
7426;SDS011;3755;59.316;18.092;2022-11-18T18:07:27;3.87;;;2.43;;
7426;SDS011;3755;59.316;18.092;2022-11-18T18:10:26;10.63;;;2.33;;
7426;SDS011;3755;59.316;18.092;2022-11-18T18:13:29;7.23;;;2.17;;
7426;SDS011;3755;59.316;18.092;2022-11-18T18:16:14;12.20;;;3.87;;
7426;SDS011;3755;59.316;18.092;2022-11-18T18:18:56;2.97;;;1.83;;
7426;SDS011;3755;59.316;18.092;2022-11-18T18:21:24;2.30;;;1.43;;
7426;SDS011;3755;59.316;18.092;2022-11-18T18:24:06;4.43;;;1.60;;
7426;SDS011;3755;59.316;18.092;2022-11-18T18:26:37;3.37;;;2.20;;
7426;SDS011;3755;59.316;18.092;2022-11-18T18:29:19;7.20;;;2.20;;
7426;SDS011;3755;59.316;18.092;2022-11-18T18:31:50;4.17;;;1.60;;
7426;SDS011;3755;59.316;18.092;2022-11-18T18:34:18;4.03;;;2.07;;
7426;SDS011;3755;59.316;18.092;2022-11-18T18:36:47;3.37;;;1.77;;
7426;SDS011;3755;59.316;18.092;2022-11-18T18:39:15;3.60;;;2.17;;
7426;SDS011;3755;59.316;18.092;2022-11-18T18:45:11;2.17;;;1.40;;
7426;SDS011;3755;59.316;18.092;2022-11-18T18:48:00;8.90;;;2.63;;
7426;SDS011;3755;59.316;18.092;2022-11-18T18:50:30;3.50;;;1.67;;
7426;SDS011;3755;59.316;18.092;2022-11-18T18:53:11;6.97;;;2.60;;
7426;SDS011;3755;59.316;18.092;2022-11-18T18:55:39;3.57;;;2.03;;
7426;SDS011;3755;59.316;18.092;2022-11-18T18:58:07;7.47;;;2.93;;
7426;SDS011;3755;59.316;18.092;2022-11-18T19:00:48;4.00;;;2.10;;
7426;SDS011;3755;59.316;18.092;2022-11-18T19:03:29;4.77;;;2.33;;
7426;SDS011;3755;59.316;18.092;2022-11-18T19:05:57;6.13;;;2.17;;
7426;SDS011;3755;59.316;18.092;2022-11-18T19:08:27;5.83;;;2.73;;
7426;SDS011;3755;59.316;18.092;2022-11-18T19:11:09;4.90;;;2.40;;
7426;SDS011;3755;59.316;18.092;2022-11-18T19:13:59;6.80;;;2.30;;
7426;SDS011;3755;59.316;18.092;2022-11-18T19:16:36;3.13;;;1.97;;
7426;SDS011;3755;59.316;18.092;2022-11-18T19:19:08;5.70;;;2.37;;
7426;SDS011;3755;59.316;18.092;2022-11-18T19:21:40;4.93;;;1.50;;
7426;SDS011;3755;59.316;18.092;2022-11-18T19:24:07;3.77;;;1.60;;
7426;SDS011;3755;59.316;18.092;2022-11-18T19:26:37;6.13;;;2.80;;
7426;SDS011;3755;59.316;18.092;2022-11-18T19:29:18;3.77;;;1.80;;
7426;SDS011;3755;59.316;18.092;2022-11-18T19:31:51;3.70;;;1.93;;
7426;SDS011;3755;59.316;18.092;2022-11-18T19:34:28;5.00;;;2.10;;
7426;SDS011;3755;59.316;18.092;2022-11-18T19:36:56;7.37;;;1.90;;
7426;SDS011;3755;59.316;18.092;2022-11-18T19:39:25;4.10;;;1.63;;
7426;SDS011;3755;59.316;18.092;2022-11-18T19:41:59;2.30;;;1.00;;
7426;SDS011;3755;59.316;18.092;2022-11-18T19:44:39;6.47;;;1.40;;
7426;SDS011;3755;59.316;18.092;2022-11-18T19:50:07;6.43;;;2.37;;
7426;SDS011;3755;59.316;18.092;2022-11-18T19:52:46;4.60;;;1.90;;
7426;SDS011;3755;59.316;18.092;2022-11-18T19:55:17;3.23;;;1.90;;
7426;SDS011;3755;59.316;18.092;2022-11-18T19:57:44;6.57;;;1.70;;
7426;SDS011;3755;59.316;18.092;2022-11-18T20:00:25;3.93;;;1.60;;
7426;SDS011;3755;59.316;18.092;2022-11-18T20:02:54;3.53;;;1.60;;
7426;SDS011;3755;59.316;18.092;2022-11-18T20:05:33;2.27;;;1.30;;